createdAt,value
2023-03-08T00:01:38.701Z,13.60
2023-03-08T00:04:07.360Z,13.80
2023-03-08T00:06:36.316Z,13.10
2023-03-08T00:09:06.248Z,13.07
2023-03-08T00:11:34.631Z,13.33
2023-03-08T00:14:03.435Z,13.73
2023-03-08T00:16:31.857Z,13.83
2023-03-08T00:19:00.189Z,15.27
2023-03-08T00:21:28.542Z,13.70
2023-03-08T00:23:56.988Z,13.90
2023-03-08T00:26:26.903Z,14.57
2023-03-08T00:28:56.763Z,16.80
2023-03-08T00:31:25.328Z,16.67
2023-03-08T00:33:55.673Z,15.03
2023-03-08T00:36:24.211Z,15.17
2023-03-08T00:38:52.731Z,15.43
2023-03-08T00:41:21.370Z,15.17
2023-03-08T00:43:51.646Z,15.50
2023-03-08T00:46:20.319Z,16.10
2023-03-08T00:48:48.766Z,15.33
2023-03-08T00:51:18.570Z,15.57
2023-03-08T00:53:48.668Z,15.60
2023-03-08T00:56:17.237Z,14.93
2023-03-08T00:58:46.593Z,15.17
2023-03-08T01:01:19.444Z,16.50
2023-03-08T01:03:50.195Z,15.83
2023-03-08T01:06:18.754Z,15.23
2023-03-08T01:08:47.049Z,16.13
2023-03-08T01:11:18.131Z,15.70
2023-03-08T01:13:47.909Z,17.47
2023-03-08T01:16:19.956Z,16.93
2023-03-08T01:18:49.108Z,15.73
2023-03-08T01:21:18.364Z,16.33
2023-03-08T01:23:46.838Z,15.70
2023-03-08T01:26:17.058Z,14.70
2023-03-08T01:28:46.277Z,16.07
2023-03-08T01:31:16.488Z,17.57
2023-03-08T01:33:46.996Z,16.43
2023-03-08T01:36:18.430Z,16.03
2023-03-08T01:38:47.197Z,16.10
2023-03-08T01:41:18.466Z,18.23
2023-03-08T01:43:47.507Z,17.33
2023-03-08T01:46:30.828Z,17.30
2023-03-08T01:49:27.313Z,17.93
2023-03-08T01:52:00.351Z,16.70
2023-03-08T01:54:32.597Z,17.87
2023-03-08T01:57:03.646Z,18.63
2023-03-08T01:59:35.660Z,17.17
2023-03-08T02:02:04.857Z,18.33
2023-03-08T02:04:36.849Z,18.37
2023-03-08T02:07:10.135Z,17.90
2023-03-08T02:09:38.826Z,19.10
2023-03-08T02:12:12.597Z,17.27
2023-03-08T02:14:42.701Z,18.10
2023-03-08T02:17:12.304Z,17.40
2023-03-08T02:19:47.576Z,17.47
2023-03-08T02:22:18.284Z,17.93
2023-03-08T02:24:49.276Z,17.53
2023-03-08T02:27:22.961Z,17.03
2023-03-08T02:29:51.718Z,17.67
2023-03-08T02:32:20.170Z,17.77
2023-03-08T02:34:48.452Z,17.50
2023-03-08T02:37:16.834Z,17.47
2023-03-08T02:39:45.158Z,17.00
2023-03-08T02:42:14.884Z,17.53
2023-03-08T02:44:44.641Z,17.77
2023-03-08T02:47:13.184Z,16.83
2023-03-08T02:49:41.893Z,16.83
2023-03-08T02:52:11.509Z,17.47
2023-03-08T02:54:39.866Z,17.87
2023-03-08T02:57:09.037Z,18.60
2023-03-08T02:59:41.670Z,18.87
2023-03-08T03:02:10.358Z,17.50
2023-03-08T03:04:38.994Z,18.03
2023-03-08T03:07:07.564Z,18.30
2023-03-08T03:09:37.745Z,18.30
2023-03-08T03:12:06.411Z,18.67
2023-03-08T03:14:37.696Z,19.13
2023-03-08T03:17:07.814Z,18.10
2023-03-08T03:19:36.653Z,18.60
2023-03-08T03:22:05.484Z,19.00
2023-03-08T03:24:35.461Z,19.53
2023-03-08T03:27:06.084Z,17.70
2023-03-08T03:29:38.284Z,19.87
2023-03-08T03:32:15.750Z,18.83
2023-03-08T03:34:44.506Z,18.60
2023-03-08T03:37:13.554Z,21.97
2023-03-08T03:39:42.871Z,21.00
2023-03-08T03:42:14.343Z,23.30
2023-03-08T03:44:49.636Z,19.07
2023-03-08T03:47:23.296Z,20.70
2023-03-08T03:49:56.626Z,20.40
2023-03-08T03:52:26.452Z,19.67
2023-03-08T03:55:01.179Z,18.83
2023-03-08T03:57:29.735Z,20.20
2023-03-08T03:59:58.788Z,17.83
2023-03-08T04:02:29.471Z,20.03
2023-03-08T04:05:00.801Z,18.47
2023-03-08T04:07:32.106Z,18.37
2023-03-08T04:10:02.294Z,18.93
2023-03-08T04:12:32.502Z,18.00
2023-03-08T04:15:01.016Z,18.17
2023-03-08T04:17:34.475Z,18.40
2023-03-08T04:20:04.495Z,17.57
2023-03-08T04:22:36.948Z,18.13
2023-03-08T04:25:16.484Z,18.97
2023-03-08T04:27:54.090Z,16.27
2023-03-08T04:30:23.180Z,15.57
2023-03-08T04:32:54.719Z,17.20
2023-03-08T04:35:27.220Z,16.30
2023-03-08T04:37:56.545Z,16.30
2023-03-08T04:40:27.457Z,16.60
2023-03-08T04:42:59.516Z,15.47
2023-03-08T04:45:34.057Z,15.87
2023-03-08T04:48:08.135Z,15.57
2023-03-08T04:50:36.711Z,14.27
2023-03-08T04:53:05.633Z,14.70
2023-03-08T04:55:34.060Z,16.13
2023-03-08T04:58:03.351Z,15.80
2023-03-08T05:00:33.632Z,16.63
2023-03-08T05:03:02.004Z,14.90
2023-03-08T05:05:32.080Z,15.23
2023-03-08T05:08:04.256Z,16.87
2023-03-08T05:10:34.534Z,16.40
2023-03-08T05:13:02.854Z,17.17
2023-03-08T05:15:31.345Z,16.93
2023-03-08T05:17:59.918Z,15.37
2023-03-08T05:20:28.746Z,16.10
2023-03-08T05:22:59.631Z,15.73
2023-03-08T05:25:43.052Z,14.73
2023-03-08T05:28:15.886Z,15.97
2023-03-08T05:30:45.953Z,16.00
2023-03-08T05:33:15.288Z,16.47
2023-03-08T05:35:43.725Z,16.50
2023-03-08T05:38:13.662Z,15.57
2023-03-08T05:40:42.379Z,16.13
2023-03-08T05:43:12.148Z,16.07
2023-03-08T05:45:41.057Z,15.73
2023-03-08T05:48:09.539Z,15.93
2023-03-08T05:50:39.236Z,16.50
2023-03-08T05:53:07.572Z,15.97
2023-03-08T05:55:37.511Z,16.23
2023-03-08T05:58:06.763Z,15.00
2023-03-08T06:00:36.012Z,14.63
2023-03-08T06:03:04.715Z,14.83
2023-03-08T06:05:36.359Z,16.17
2023-03-08T06:08:05.156Z,15.03
2023-03-08T06:10:34.393Z,12.47
2023-03-08T06:13:04.680Z,13.53
2023-03-08T06:15:33.306Z,12.10
2023-03-08T06:18:02.385Z,12.13
2023-03-08T06:20:33.043Z,12.17
2023-03-08T06:23:02.433Z,11.37
2023-03-08T06:25:32.443Z,12.30
2023-03-08T06:28:03.254Z,12.37
2023-03-08T06:30:39.293Z,12.97
2023-03-08T06:33:07.960Z,12.43
2023-03-08T06:35:37.089Z,13.43
2023-03-08T06:38:07.964Z,14.77
2023-03-08T06:40:38.396Z,14.73
2023-03-08T06:43:08.253Z,14.00
2023-03-08T06:45:39.196Z,15.20
2023-03-08T06:48:08.838Z,14.47
2023-03-08T06:50:37.507Z,11.40
2023-03-08T06:53:06.564Z,12.23
2023-03-08T06:55:46.495Z,12.27
2023-03-08T06:58:17.307Z,12.13
2023-03-08T07:00:45.757Z,12.37
2023-03-08T07:03:14.646Z,13.67
2023-03-08T07:05:43.770Z,13.67
2023-03-08T07:08:12.396Z,12.93
2023-03-08T07:10:40.722Z,11.67
2023-03-08T07:13:09.193Z,12.40
2023-03-08T07:15:40.975Z,12.40
2023-03-08T07:18:09.499Z,12.87
2023-03-08T07:20:37.945Z,13.87
2023-03-08T07:23:06.603Z,15.53
2023-03-08T07:25:35.006Z,14.23
2023-03-08T07:28:03.365Z,15.27
2023-03-08T07:30:32.146Z,15.13
2023-03-08T07:33:02.245Z,15.77
2023-03-08T07:35:30.722Z,16.33
2023-03-08T07:37:59.196Z,15.47
2023-03-08T07:40:27.998Z,17.70
2023-03-08T07:42:57.638Z,16.80
2023-03-08T07:45:55.632Z,18.17
2023-03-08T07:48:25.567Z,15.13
2023-03-08T07:50:54.240Z,14.83
2023-03-08T07:53:22.856Z,16.10
2023-03-08T07:55:51.164Z,17.17
2023-03-08T07:58:19.663Z,16.80
2023-03-08T08:00:48.147Z,16.73
2023-03-08T08:03:16.709Z,17.83
2023-03-08T08:05:46.507Z,18.50
2023-03-08T08:08:15.092Z,15.87
2023-03-08T08:10:44.392Z,12.90
2023-03-08T08:13:12.756Z,13.17
2023-03-08T08:15:41.222Z,10.93
2023-03-08T08:18:09.612Z,9.57
2023-03-08T08:20:38.065Z,8.93
2023-03-08T08:23:08.653Z,8.07
2023-03-08T08:25:36.985Z,7.53
2023-03-08T08:28:05.394Z,7.80
2023-03-08T08:30:33.838Z,8.53
2023-03-08T08:33:03.639Z,7.37
2023-03-08T08:35:42.636Z,7.73
2023-03-08T08:38:13.682Z,7.87
2023-03-08T08:40:42.128Z,9.03
2023-03-08T08:43:10.569Z,7.50
2023-03-08T08:45:44.649Z,7.83
2023-03-08T08:48:13.642Z,7.93
2023-03-08T08:50:43.328Z,8.80
2023-03-08T08:53:13.404Z,8.17
2023-03-08T08:55:43.101Z,9.00
2023-03-08T08:58:13.179Z,8.60
2023-03-08T09:00:42.468Z,8.87
2023-03-08T09:03:11.557Z,9.07
2023-03-08T09:05:41.607Z,8.77
2023-03-08T09:08:11.068Z,9.47
2023-03-08T09:10:41.911Z,8.33
2023-03-08T09:13:10.608Z,9.60
2023-03-08T09:15:39.157Z,9.50
2023-03-08T09:18:07.745Z,9.03
2023-03-08T09:20:36.382Z,9.20
2023-03-08T09:23:05.007Z,7.23
2023-03-08T09:25:33.435Z,8.37
2023-03-08T09:28:03.394Z,7.80
2023-03-08T09:30:33.001Z,7.20
2023-03-08T09:33:02.397Z,7.87
2023-03-08T09:35:31.414Z,9.00
2023-03-08T09:38:01.330Z,8.43
2023-03-08T09:40:38.938Z,9.40
2023-03-08T09:43:19.211Z,10.20
2023-03-08T09:45:48.025Z,11.57
2023-03-08T09:48:21.257Z,12.00
2023-03-08T09:50:52.382Z,11.73
2023-03-08T09:53:30.290Z,12.40
2023-03-08T09:56:05.411Z,14.20
2023-03-08T09:58:42.165Z,12.67
2023-03-08T10:01:28.989Z,12.63
2023-03-08T10:04:16.677Z,13.77
2023-03-08T10:06:52.469Z,12.80
2023-03-08T10:09:32.236Z,13.10
2023-03-08T10:12:13.353Z,13.57
2023-03-08T10:14:49.373Z,12.63
2023-03-08T10:17:21.759Z,12.17
2023-03-08T10:19:56.966Z,12.33
2023-03-08T10:22:29.223Z,11.97
2023-03-08T10:25:02.862Z,12.40
2023-03-08T10:27:36.305Z,13.30
2023-03-08T10:30:15.712Z,14.13
2023-03-08T10:32:45.739Z,14.00
2023-03-08T10:35:14.841Z,13.57
2023-03-08T10:37:43.428Z,13.20
2023-03-08T10:40:18.899Z,12.33
2023-03-08T10:42:53.506Z,12.00
2023-03-08T10:45:25.625Z,13.10
2023-03-08T10:47:59.653Z,12.23
2023-03-08T10:50:30.157Z,12.53
2023-03-08T10:53:10.422Z,13.43
2023-03-08T10:55:44.672Z,13.93
2023-03-08T10:58:30.394Z,13.03
2023-03-08T11:01:02.430Z,11.53
2023-03-08T11:03:31.539Z,12.60
2023-03-08T11:06:02.212Z,11.53
2023-03-08T11:08:33.458Z,11.93
2023-03-08T11:11:04.105Z,11.73
2023-03-08T11:13:35.569Z,12.50
2023-03-08T11:16:39.263Z,13.40
2023-03-08T11:19:23.510Z,13.47
2023-03-08T11:22:03.707Z,13.77
2023-03-08T11:24:46.878Z,13.17
2023-03-08T11:27:27.735Z,13.67
2023-03-08T11:30:10.649Z,16.23
2023-03-08T11:32:56.667Z,16.03
2023-03-08T11:35:33.709Z,16.57
2023-03-08T11:38:10.907Z,17.43
2023-03-08T11:40:50.134Z,17.10
2023-03-08T11:43:32.451Z,17.43
2023-03-08T11:46:07.904Z,16.70
2023-03-08T11:48:50.293Z,16.53
2023-03-08T11:51:27.555Z,17.97
2023-03-08T11:54:08.779Z,17.43
2023-03-08T11:56:44.033Z,18.07
2023-03-08T11:59:20.426Z,17.80
2023-03-08T12:01:54.148Z,17.67
2023-03-08T12:04:28.810Z,19.27
2023-03-08T12:07:03.664Z,19.23
2023-03-08T12:09:37.739Z,18.13
2023-03-08T12:12:09.676Z,19.17
2023-03-08T12:14:47.725Z,19.53
2023-03-08T12:17:20.710Z,19.23
2023-03-08T12:19:50.914Z,19.07
2023-03-08T12:22:33.760Z,18.90
2023-03-08T12:25:15.071Z,19.50
2023-03-08T12:27:50.602Z,18.37
2023-03-08T12:30:27.279Z,18.50
2023-03-08T12:32:58.570Z,17.60
2023-03-08T12:35:30.442Z,17.43
2023-03-08T12:38:02.408Z,17.13
2023-03-08T12:40:38.649Z,17.13
2023-03-08T12:43:13.519Z,16.83
2023-03-08T12:45:44.930Z,15.27
2023-03-08T12:48:33.149Z,15.47
2023-03-08T12:51:05.853Z,15.43
2023-03-08T12:53:39.902Z,15.13
2023-03-08T12:56:23.318Z,15.67
2023-03-08T12:58:54.850Z,16.50
2023-03-08T13:01:42.286Z,17.20
2023-03-08T13:04:39.916Z,16.40
2023-03-08T13:07:28.387Z,18.30
2023-03-08T13:10:05.901Z,16.77
2023-03-08T13:12:54.407Z,19.87
2023-03-08T13:15:26.088Z,18.27
2023-03-08T13:18:01.096Z,18.43
2023-03-08T13:20:42.984Z,20.33
2023-03-08T13:23:24.712Z,19.87
2023-03-08T13:26:07.009Z,20.90
2023-03-08T13:28:46.686Z,20.03
2023-03-08T13:31:19.040Z,20.63
2023-03-08T13:33:49.789Z,21.07
2023-03-08T13:36:21.631Z,20.90
2023-03-08T13:38:59.657Z,20.03
2023-03-08T13:41:37.753Z,21.37
2023-03-08T13:44:08.276Z,21.20
2023-03-08T13:46:42.620Z,21.77
2023-03-08T13:49:17.058Z,22.93
2023-03-08T13:51:47.736Z,21.23
2023-03-08T13:54:18.911Z,22.93
2023-03-08T13:56:54.469Z,22.13
2023-03-08T13:59:23.304Z,25.57
2023-03-08T14:01:53.134Z,24.90
2023-03-08T14:04:24.128Z,25.03
2023-03-08T14:06:54.445Z,27.43
2023-03-08T14:09:23.416Z,27.50
2023-03-08T14:12:00.978Z,29.77
2023-03-08T14:14:37.029Z,29.97
2023-03-08T14:17:06.458Z,30.47
2023-03-08T14:19:37.476Z,31.37
2023-03-08T14:22:12.832Z,30.97
2023-03-08T14:24:43.688Z,31.17
2023-03-08T14:27:35.022Z,31.93
2023-03-08T14:30:05.803Z,30.87
2023-03-08T14:32:35.944Z,30.47
2023-03-08T14:35:16.482Z,30.30
2023-03-08T14:37:48.104Z,29.50
2023-03-08T14:40:26.422Z,28.97
2023-03-08T14:42:58.577Z,30.47
2023-03-08T14:45:35.284Z,28.87
2023-03-08T14:48:16.947Z,28.60
2023-03-08T14:50:57.246Z,27.20
2023-03-08T14:53:29.826Z,28.90
2023-03-08T14:55:59.024Z,27.83
2023-03-08T14:58:31.968Z,28.97
2023-03-08T15:01:02.578Z,28.87
2023-03-08T15:03:33.022Z,27.27
2023-03-08T15:06:08.895Z,28.00
2023-03-08T15:08:37.853Z,28.70
2023-03-08T15:11:08.199Z,28.57
2023-03-08T15:13:38.028Z,29.60
2023-03-08T15:16:08.290Z,29.60
2023-03-08T15:18:36.670Z,29.97
2023-03-08T15:21:05.762Z,27.17
2023-03-08T15:23:37.991Z,28.10
2023-03-08T15:26:07.781Z,26.80
2023-03-08T15:28:37.549Z,28.30
2023-03-08T15:31:06.336Z,33.83
2023-03-08T15:33:34.773Z,29.33
2023-03-08T15:36:03.370Z,29.53
2023-03-08T15:38:31.909Z,28.57
2023-03-08T15:41:00.395Z,28.60
2023-03-08T15:43:28.972Z,29.87
2023-03-08T15:45:58.763Z,27.27
2023-03-08T15:48:27.284Z,29.00
2023-03-08T15:50:58.349Z,28.70
2023-03-08T15:53:35.376Z,30.30
2023-03-08T15:56:04.739Z,27.77
2023-03-08T15:58:33.310Z,29.60
2023-03-08T16:01:03.294Z,29.63
2023-03-08T16:03:31.704Z,29.60
2023-03-08T16:06:00.551Z,31.20
2023-03-08T16:08:29.709Z,28.80
2023-03-08T16:11:04.022Z,29.67
2023-03-08T16:13:32.662Z,32.07
2023-03-08T16:16:03.920Z,30.57
2023-03-08T16:18:33.764Z,30.47
2023-03-08T16:21:02.622Z,31.93
2023-03-08T16:23:31.443Z,30.50
2023-03-08T16:26:14.065Z,34.20
2023-03-08T16:28:45.158Z,32.40
2023-03-08T16:31:16.009Z,28.70
2023-03-08T16:33:44.574Z,33.43
2023-03-08T16:36:13.582Z,30.57
2023-03-08T16:38:42.783Z,32.27
2023-03-08T16:41:14.121Z,30.43
2023-03-08T16:43:47.646Z,32.60
2023-03-08T16:46:20.213Z,31.17
2023-03-08T16:48:49.978Z,31.77
2023-03-08T16:51:20.725Z,31.33
2023-03-08T16:53:49.920Z,32.37
2023-03-08T16:56:19.555Z,31.53
2023-03-08T16:58:48.381Z,32.07
2023-03-08T17:01:20.232Z,31.93
2023-03-08T17:03:48.840Z,30.03
2023-03-08T17:06:19.594Z,32.77
2023-03-08T17:08:48.418Z,30.83
2023-03-08T17:11:17.850Z,32.80
2023-03-08T17:13:51.116Z,30.50
2023-03-08T17:16:22.471Z,31.27
2023-03-08T17:18:52.065Z,37.37
2023-03-08T17:21:22.165Z,32.23
2023-03-08T17:23:51.499Z,34.20
2023-03-08T17:26:22.115Z,29.60
2023-03-08T17:28:50.969Z,29.10
2023-03-08T17:31:23.156Z,32.10
2023-03-08T17:33:52.163Z,29.73
2023-03-08T17:36:20.982Z,31.47
2023-03-08T17:38:49.587Z,29.27
2023-03-08T17:41:18.179Z,27.97
2023-03-08T17:43:46.946Z,27.00
2023-03-08T17:46:17.926Z,25.13
2023-03-08T17:48:48.115Z,27.77
2023-03-08T17:51:18.971Z,26.23
2023-03-08T17:53:48.031Z,27.33
2023-03-08T17:56:19.838Z,28.30
2023-03-08T17:58:49.331Z,29.30
2023-03-08T18:01:20.136Z,29.70
2023-03-08T18:03:51.033Z,28.50
2023-03-08T18:06:24.994Z,30.23
2023-03-08T18:08:53.987Z,30.93
2023-03-08T18:11:22.592Z,30.60
2023-03-08T18:13:51.713Z,31.23
2023-03-08T18:16:21.627Z,34.27
2023-03-08T18:18:51.808Z,33.13
2023-03-08T18:21:24.728Z,32.97
2023-03-08T18:23:55.218Z,34.03
2023-03-08T18:26:23.918Z,33.67
2023-03-08T18:28:52.783Z,33.90
2023-03-08T18:31:26.205Z,32.17
2023-03-08T18:33:56.636Z,32.87
2023-03-08T18:36:25.647Z,32.13
2023-03-08T18:38:54.406Z,31.10
2023-03-08T18:41:25.765Z,31.67
2023-03-08T18:43:56.384Z,31.03
2023-03-08T18:46:28.898Z,32.13
2023-03-08T18:49:01.048Z,33.30
2023-03-08T18:51:30.346Z,31.87
2023-03-08T18:54:00.416Z,34.13
2023-03-08T18:56:29.880Z,33.03
2023-03-08T18:59:01.497Z,34.83
2023-03-08T19:01:31.541Z,34.60
2023-03-08T19:04:04.073Z,33.10
2023-03-08T19:06:32.469Z,33.17
2023-03-08T19:09:03.569Z,34.67
2023-03-08T19:11:31.917Z,33.60
2023-03-08T19:14:01.009Z,32.90
2023-03-08T19:16:32.201Z,34.90
2023-03-08T19:19:03.707Z,39.07
2023-03-08T19:21:34.299Z,34.93
2023-03-08T19:24:03.285Z,35.63
2023-03-08T19:26:38.013Z,33.83
2023-03-08T19:29:09.844Z,34.27
2023-03-08T19:31:40.464Z,33.60
2023-03-08T19:34:11.612Z,34.77
2023-03-08T19:36:40.702Z,34.73
2023-03-08T19:39:11.407Z,34.87
2023-03-08T19:41:40.058Z,34.80
2023-03-08T19:44:09.215Z,37.10
2023-03-08T19:46:39.706Z,35.20
2023-03-08T19:49:13.326Z,36.97
2023-03-08T19:51:41.829Z,36.03
2023-03-08T19:54:10.948Z,36.13
2023-03-08T19:56:39.357Z,35.53
2023-03-08T19:59:07.885Z,36.23
2023-03-08T20:01:36.723Z,40.60
2023-03-08T20:04:06.257Z,39.60
2023-03-08T20:06:39.762Z,39.83
2023-03-08T20:09:11.756Z,38.77
2023-03-08T20:11:41.120Z,36.80
2023-03-08T20:14:09.842Z,35.53
2023-03-08T20:16:38.988Z,36.53
2023-03-08T20:19:07.808Z,37.60
2023-03-08T20:21:37.887Z,35.60
2023-03-08T20:24:07.355Z,38.53
2023-03-08T20:26:38.600Z,38.80
2023-03-08T20:29:07.344Z,36.73
2023-03-08T20:31:35.692Z,39.37
2023-03-08T20:34:04.137Z,38.97
2023-03-08T20:36:32.545Z,39.23
2023-03-08T20:39:03.840Z,40.77
2023-03-08T20:41:32.380Z,40.00
2023-03-08T20:44:00.795Z,41.57
2023-03-08T20:46:34.050Z,45.97
2023-03-08T20:49:03.067Z,39.70
2023-03-08T20:51:32.241Z,40.40
2023-03-08T20:54:02.177Z,42.43
2023-03-08T20:56:30.777Z,41.40
2023-03-08T20:59:00.711Z,42.60
2023-03-08T21:01:33.769Z,43.77
2023-03-08T21:04:03.222Z,41.57
2023-03-08T21:06:32.884Z,42.63
2023-03-08T21:09:02.885Z,40.13
2023-03-08T21:11:31.831Z,41.07
2023-03-08T21:14:00.773Z,42.10
2023-03-08T21:16:30.301Z,42.33
2023-03-08T21:19:00.112Z,41.03
2023-03-08T21:21:33.148Z,42.57
2023-03-08T21:24:04.807Z,40.73
2023-03-08T21:26:34.752Z,42.57
2023-03-08T21:29:05.272Z,42.57
2023-03-08T21:31:36.315Z,43.30
2023-03-08T21:34:06.301Z,43.23
2023-03-08T21:36:35.985Z,44.13
2023-03-08T21:39:08.887Z,43.03
2023-03-08T21:41:38.814Z,43.73
2023-03-08T21:44:10.456Z,45.80
2023-03-08T21:46:39.700Z,41.87
2023-03-08T21:49:08.840Z,43.40
2023-03-08T21:51:38.560Z,44.10
2023-03-08T21:54:08.485Z,42.90
2023-03-08T21:56:36.923Z,41.90
2023-03-08T21:59:05.625Z,43.13
2023-03-08T22:01:34.825Z,43.53
2023-03-08T22:04:05.186Z,42.00
2023-03-08T22:06:33.887Z,43.97
2023-03-08T22:09:04.143Z,40.93
2023-03-08T22:11:34.260Z,42.43
2023-03-08T22:14:03.535Z,40.87
2023-03-08T22:16:32.595Z,43.03
2023-03-08T22:19:03.159Z,41.97
2023-03-08T22:21:32.385Z,40.93
2023-03-08T22:24:03.029Z,41.20
2023-03-08T22:26:33.329Z,43.93
2023-03-08T22:29:02.137Z,41.23
2023-03-08T22:31:31.312Z,42.83
2023-03-08T22:34:01.503Z,42.67
2023-03-08T22:36:29.987Z,43.53
2023-03-08T22:39:01.214Z,44.93
2023-03-08T22:41:29.874Z,44.50
2023-03-08T22:43:59.698Z,41.37
2023-03-08T22:46:29.216Z,43.67
2023-03-08T22:48:59.433Z,43.43
2023-03-08T22:51:28.819Z,41.93
2023-03-08T22:53:59.207Z,42.73
2023-03-08T22:56:31.579Z,39.97
2023-03-08T22:59:02.475Z,42.23
2023-03-08T23:01:32.660Z,39.83
2023-03-08T23:04:02.682Z,41.07
2023-03-08T23:06:32.373Z,41.87
2023-03-08T23:09:03.627Z,38.10
2023-03-08T23:11:32.018Z,41.37
2023-03-08T23:14:03.163Z,39.13
2023-03-08T23:16:32.268Z,41.10
2023-03-08T23:19:01.273Z,42.07
2023-03-08T23:21:32.054Z,43.03
2023-03-08T23:24:00.895Z,41.93
2023-03-08T23:26:29.372Z,39.57
2023-03-08T23:28:59.153Z,39.60
2023-03-08T23:31:31.162Z,38.83
2023-03-08T23:34:01.008Z,38.63
2023-03-08T23:36:32.547Z,37.03
2023-03-08T23:39:03.625Z,36.50
2023-03-08T23:41:32.614Z,38.07
2023-03-08T23:44:02.926Z,38.90
2023-03-08T23:46:33.659Z,38.90
2023-03-08T23:49:02.888Z,39.23
2023-03-08T23:51:33.433Z,37.97
2023-03-08T23:54:03.648Z,36.77
2023-03-08T23:56:38.069Z,37.00
2023-03-08T23:59:09.413Z,36.07
